createdAt,value
2017-06-22T00:01:08.659Z,10.00
2017-06-22T00:03:36.159Z,9.22
2017-06-22T00:06:04.468Z,9.92
2017-06-22T00:08:32.727Z,9.18
2017-06-22T00:11:01.000Z,10.58
2017-06-22T00:13:29.298Z,8.88
2017-06-22T00:15:57.569Z,10.72
2017-06-22T00:18:25.824Z,8.84
2017-06-22T00:20:54.116Z,9.28
2017-06-22T00:23:22.417Z,9.64
2017-06-22T00:25:50.681Z,9.96
2017-06-22T00:28:18.944Z,10.62
2017-06-22T00:30:47.253Z,11.26
2017-06-22T00:33:15.531Z,10.06
2017-06-22T00:35:43.813Z,9.80
2017-06-22T00:38:12.090Z,10.22
2017-06-22T00:40:40.405Z,10.16
2017-06-22T00:43:08.669Z,8.92
2017-06-22T00:45:36.929Z,9.12
2017-06-22T00:48:05.212Z,9.74
2017-06-22T00:50:33.475Z,9.36
2017-06-22T00:53:01.761Z,10.90
2017-06-22T00:55:30.034Z,10.90
2017-06-22T00:57:58.316Z,9.98
2017-06-22T01:00:25.815Z,10.46
2017-06-22T01:02:54.115Z,8.88
2017-06-22T01:05:22.392Z,9.58
2017-06-22T01:07:50.649Z,9.50
2017-06-22T01:10:18.944Z,11.22
2017-06-22T01:12:47.205Z,9.98
2017-06-22T01:15:14.732Z,10.32
2017-06-22T01:17:43.016Z,10.20
2017-06-22T01:20:11.283Z,10.20
2017-06-22T01:22:39.575Z,10.08
2017-06-22T01:25:07.863Z,10.34
2017-06-22T01:27:36.131Z,9.56
2017-06-22T01:30:04.435Z,11.14
2017-06-22T01:32:32.693Z,11.46
2017-06-22T01:35:00.988Z,11.68
2017-06-22T01:37:29.254Z,10.60
2017-06-22T01:39:57.554Z,10.42
2017-06-22T01:42:25.826Z,11.22
2017-06-22T01:44:54.142Z,10.08
2017-06-22T01:47:22.445Z,10.22
2017-06-22T01:49:50.712Z,10.44
2017-06-22T01:52:19.008Z,9.52
2017-06-22T01:54:47.279Z,11.08
2017-06-22T01:57:15.541Z,10.82
2017-06-22T01:59:43.836Z,10.82
2017-06-22T02:02:12.104Z,10.46
2017-06-22T02:04:40.396Z,11.16
2017-06-22T02:07:08.823Z,10.00
2017-06-22T02:09:37.113Z,10.86
2017-06-22T02:12:05.382Z,10.36
2017-06-22T02:14:34.034Z,10.82
2017-06-22T02:17:02.305Z,11.48
2017-06-22T02:19:29.831Z,11.56
2017-06-22T02:21:58.105Z,10.32
2017-06-22T02:24:26.431Z,10.38
2017-06-22T02:26:54.690Z,14.24
2017-06-22T02:29:22.960Z,10.52
2017-06-22T02:31:51.267Z,12.26
2017-06-22T02:34:19.528Z,10.84
2017-06-22T02:36:47.819Z,10.44
2017-06-22T02:39:16.075Z,11.40
2017-06-22T02:41:44.368Z,11.20
2017-06-22T02:44:12.626Z,10.48
2017-06-22T02:46:40.928Z,10.66
2017-06-22T02:49:09.199Z,11.12
2017-06-22T02:51:37.467Z,11.14
2017-06-22T02:54:05.764Z,10.52
2017-06-22T02:56:33.265Z,11.72
2017-06-22T02:59:01.555Z,11.44
2017-06-22T03:01:29.822Z,12.12
2017-06-22T03:03:58.122Z,12.04
2017-06-22T03:06:26.387Z,11.46
2017-06-22T03:08:55.076Z,12.84
2017-06-22T03:11:23.372Z,11.94
2017-06-22T03:13:51.680Z,11.50
2017-06-22T03:16:23.264Z,13.00
2017-06-22T03:18:51.558Z,11.78
2017-06-22T03:21:19.852Z,12.94
2017-06-22T03:23:48.116Z,13.54
2017-06-22T03:26:16.418Z,12.84
2017-06-22T03:28:44.678Z,12.08
2017-06-22T03:31:12.975Z,12.56
2017-06-22T03:33:41.235Z,13.22
2017-06-22T03:36:09.520Z,12.16
2017-06-22T03:38:37.784Z,13.48
2017-06-22T03:41:06.936Z,13.34
2017-06-22T03:43:35.563Z,12.50
2017-06-22T03:46:03.834Z,13.70
2017-06-22T03:48:32.128Z,13.24
2017-06-22T03:51:00.389Z,12.00
2017-06-22T03:53:28.676Z,13.20
2017-06-22T03:55:56.957Z,12.34
2017-06-22T03:58:25.246Z,13.02
2017-06-22T04:00:53.521Z,13.82
2017-06-22T04:03:21.829Z,13.02
2017-06-22T04:05:50.096Z,13.08
2017-06-22T04:08:18.365Z,13.52
2017-06-22T04:10:45.903Z,12.90
2017-06-22T04:13:14.173Z,12.82
2017-06-22T04:15:42.468Z,13.14
2017-06-22T04:18:10.726Z,13.88
2017-06-22T04:20:39.032Z,12.74
2017-06-22T04:23:07.291Z,13.94
2017-06-22T04:25:35.588Z,12.72
2017-06-22T04:28:03.886Z,13.54
2017-06-22T04:30:32.153Z,11.52
2017-06-22T04:33:00.440Z,12.96
2017-06-22T04:35:28.745Z,13.36
2017-06-22T04:37:57.014Z,13.98
2017-06-22T04:40:24.547Z,13.58
2017-06-22T04:42:52.816Z,13.08
2017-06-22T04:45:21.127Z,15.08
2017-06-22T04:47:49.395Z,14.66
2017-06-22T04:50:17.663Z,14.02
2017-06-22T04:52:45.973Z,13.54
2017-06-22T04:55:14.245Z,14.54
2017-06-22T04:57:42.506Z,14.56
2017-06-22T05:00:10.811Z,15.00
2017-06-22T05:02:39.093Z,15.00
2017-06-22T05:05:07.354Z,14.92
2017-06-22T05:07:35.670Z,15.24
2017-06-22T05:10:03.936Z,15.52
2017-06-22T05:12:32.240Z,14.68
2017-06-22T05:15:00.500Z,16.32
2017-06-22T05:17:28.799Z,16.46
2017-06-22T05:19:57.105Z,16.58
2017-06-22T05:22:25.372Z,14.06
2017-06-22T05:24:53.669Z,16.36
2017-06-22T05:27:21.956Z,14.90
2017-06-22T05:29:50.256Z,16.56
2017-06-22T05:32:18.517Z,17.38
2017-06-22T05:34:46.808Z,17.06
2017-06-22T05:37:15.104Z,17.58
2017-06-22T05:39:43.368Z,16.46
2017-06-22T05:42:11.677Z,17.74
2017-06-22T05:44:39.960Z,18.22
2017-06-22T05:47:08.274Z,17.90
2017-06-22T05:49:36.535Z,17.72
2017-06-22T05:52:04.800Z,17.98
2017-06-22T05:54:33.323Z,16.22
2017-06-22T05:57:01.625Z,17.90
2017-06-22T05:59:29.887Z,16.80
2017-06-22T06:01:58.179Z,19.76
2017-06-22T06:04:26.452Z,16.58
2017-06-22T06:06:54.739Z,16.50
2017-06-22T06:09:23.043Z,16.30
2017-06-22T06:11:51.313Z,17.58
2017-06-22T06:14:19.596Z,15.68
2017-06-22T06:16:47.883Z,16.64
2017-06-22T06:19:15.387Z,16.84
2017-06-22T06:21:43.689Z,15.76
2017-06-22T06:24:11.948Z,14.98
2017-06-22T06:26:40.264Z,15.06
2017-06-22T06:29:08.532Z,16.56
2017-06-22T06:31:36.801Z,15.18
2017-06-22T06:34:05.124Z,16.20
2017-06-22T06:36:33.391Z,14.26
2017-06-22T06:39:01.693Z,13.88
2017-06-22T06:41:29.969Z,14.44
2017-06-22T06:43:58.261Z,14.02
2017-06-22T06:46:26.561Z,14.62
2017-06-22T06:48:54.835Z,13.72
2017-06-22T06:51:23.149Z,14.22
2017-06-22T06:53:51.425Z,13.56
2017-06-22T06:56:19.691Z,12.64
2017-06-22T06:58:48.011Z,12.52
2017-06-22T07:01:16.284Z,13.30
2017-06-22T07:03:44.553Z,12.44
2017-06-22T07:06:12.857Z,12.50
2017-06-22T07:08:41.132Z,12.04
2017-06-22T07:11:09.424Z,11.20
2017-06-22T07:13:37.682Z,11.22
2017-06-22T07:16:05.980Z,11.72
2017-06-22T07:18:34.251Z,10.24
2017-06-22T07:21:02.558Z,12.12
2017-06-22T07:23:30.819Z,9.94
2017-06-22T07:25:59.080Z,10.78
2017-06-22T07:28:27.424Z,11.68
2017-06-22T07:30:55.680Z,11.48
2017-06-22T07:33:23.945Z,12.64
2017-06-22T07:35:52.268Z,11.92
2017-06-22T07:38:20.543Z,11.84
2017-06-22T07:40:48.087Z,11.00
2017-06-22T07:43:16.364Z,11.50
2017-06-22T07:45:44.672Z,11.50
2017-06-22T07:48:12.942Z,10.64
2017-06-22T07:50:41.216Z,11.68
2017-06-22T07:53:09.528Z,11.64
2017-06-22T07:55:37.808Z,11.80
2017-06-22T07:58:06.117Z,11.34
2017-06-22T08:00:34.436Z,11.34
2017-06-22T08:03:02.701Z,11.30
2017-06-22T08:05:30.977Z,10.90
2017-06-22T08:07:59.280Z,11.58
2017-06-22T08:10:27.585Z,11.74
2017-06-22T08:12:55.905Z,11.46
2017-06-22T08:15:24.176Z,11.38
2017-06-22T08:17:52.468Z,10.94
2017-06-22T08:20:20.779Z,11.60
2017-06-22T08:22:49.048Z,10.96
2017-06-22T08:25:17.351Z,10.14
2017-06-22T08:27:45.642Z,10.08
2017-06-22T08:30:13.206Z,11.04
2017-06-22T08:32:41.479Z,10.20
2017-06-22T08:35:09.742Z,11.86
2017-06-22T08:37:38.032Z,9.72
2017-06-22T08:40:06.303Z,11.36
2017-06-22T08:42:34.605Z,12.12
2017-06-22T08:45:02.873Z,10.52
2017-06-22T08:47:31.185Z,12.18
2017-06-22T08:49:59.461Z,12.48
2017-06-22T08:52:27.737Z,11.84
2017-06-22T08:54:56.041Z,10.70
2017-06-22T08:57:24.308Z,11.40
2017-06-22T08:59:51.836Z,10.18
2017-06-22T09:02:20.114Z,11.66
2017-06-22T09:04:48.426Z,11.24
2017-06-22T09:07:15.935Z,12.02
2017-06-22T09:09:44.212Z,13.24
2017-06-22T09:12:12.500Z,12.18
2017-06-22T09:14:40.768Z,11.52
2017-06-22T09:17:09.070Z,11.80
2017-06-22T09:19:37.344Z,11.72
2017-06-22T09:22:05.671Z,12.10
2017-06-22T09:24:33.935Z,10.32
2017-06-22T09:27:01.450Z,12.38
2017-06-22T09:29:29.750Z,11.48
2017-06-22T09:31:58.016Z,11.12
2017-06-22T09:34:26.306Z,9.98
2017-06-22T09:36:54.579Z,11.30
2017-06-22T09:39:22.880Z,11.10
2017-06-22T09:41:51.221Z,12.06
2017-06-22T09:44:19.489Z,12.52
2017-06-22T09:46:47.771Z,12.02
2017-06-22T09:49:16.067Z,10.56
2017-06-22T09:51:44.344Z,12.26
2017-06-22T09:54:12.686Z,11.74
2017-06-22T09:56:40.955Z,12.12
2017-06-22T09:59:09.275Z,11.98
2017-06-22T10:01:37.547Z,13.20
2017-06-22T10:04:05.818Z,10.80
2017-06-22T10:06:34.127Z,13.18
2017-06-22T10:09:02.397Z,11.12
2017-06-22T10:11:30.701Z,13.00
2017-06-22T10:13:58.970Z,11.62
2017-06-22T10:16:27.270Z,13.54
2017-06-22T10:18:54.770Z,13.28
2017-06-22T10:21:23.071Z,12.60
2017-06-22T10:23:51.351Z,12.34
2017-06-22T10:26:19.625Z,11.88
2017-06-22T10:28:47.931Z,13.28
2017-06-22T10:31:16.208Z,11.88
2017-06-22T10:33:44.485Z,12.48
2017-06-22T10:36:12.779Z,11.98
2017-06-22T10:38:41.068Z,12.54
2017-06-22T10:41:09.327Z,11.28
2017-06-22T10:43:37.624Z,11.64
2017-06-22T10:46:05.894Z,11.20
2017-06-22T10:48:34.192Z,11.44
2017-06-22T10:51:02.464Z,11.80
2017-06-22T10:53:30.758Z,10.34
2017-06-22T10:55:59.062Z,9.92
2017-06-22T10:58:27.336Z,10.92
2017-06-22T11:00:55.593Z,11.94
2017-06-22T11:03:23.878Z,9.90
2017-06-22T11:05:52.150Z,10.92
2017-06-22T11:08:20.460Z,10.74
2017-06-22T11:10:48.729Z,10.64
2017-06-22T11:13:17.029Z,10.50
2017-06-22T11:15:45.309Z,10.78
2017-06-22T11:18:13.604Z,10.56
2017-06-22T11:20:41.877Z,11.98
2017-06-22T11:23:10.155Z,10.72
2017-06-22T11:25:38.460Z,10.68
2017-06-22T11:28:06.735Z,10.12
2017-06-22T11:30:35.035Z,11.00
2017-06-22T11:33:03.313Z,11.34
2017-06-22T11:35:31.614Z,10.28
2017-06-22T11:37:59.892Z,11.26
2017-06-22T11:40:28.172Z,10.16
2017-06-22T11:42:56.489Z,11.56
2017-06-22T11:45:24.777Z,11.72
2017-06-22T11:47:53.050Z,11.06
2017-06-22T11:50:21.348Z,11.40
2017-06-22T11:52:49.620Z,11.90
2017-06-22T11:55:17.918Z,10.78
2017-06-22T11:57:46.231Z,11.58
2017-06-22T12:00:14.502Z,10.84
2017-06-22T12:02:42.811Z,10.32
2017-06-22T12:05:11.108Z,10.80
2017-06-22T12:07:39.387Z,10.52
2017-06-22T12:10:07.686Z,11.84
2017-06-22T12:12:35.961Z,10.54
2017-06-22T12:15:04.272Z,14.54
2017-06-22T12:17:32.549Z,12.88
2017-06-22T12:20:00.822Z,10.24
2017-06-22T12:22:29.134Z,11.74
2017-06-22T12:24:57.410Z,10.90
2017-06-22T12:27:25.691Z,11.50
2017-06-22T12:29:54.003Z,12.56
2017-06-22T12:32:22.271Z,11.78
2017-06-22T12:34:50.565Z,11.08
2017-06-22T12:37:18.842Z,11.42
2017-06-22T12:39:47.136Z,11.98
2017-06-22T12:42:15.407Z,12.58
2017-06-22T12:44:43.719Z,11.94
2017-06-22T12:47:11.992Z,11.80
2017-06-22T12:49:40.264Z,12.98
2017-06-22T12:52:08.559Z,13.10
2017-06-22T12:54:36.824Z,12.36
2017-06-22T12:57:05.130Z,10.44
2017-06-22T12:59:33.404Z,10.98
2017-06-22T13:02:01.711Z,10.50
2017-06-22T13:04:29.981Z,10.98
2017-06-22T13:06:58.244Z,12.22
2017-06-22T13:09:26.530Z,10.58
2017-06-22T13:11:54.795Z,11.36
2017-06-22T13:14:23.101Z,11.90
2017-06-22T13:16:51.364Z,11.84
2017-06-22T13:19:19.630Z,11.08
2017-06-22T13:21:47.936Z,11.98
2017-06-22T13:24:16.204Z,11.82
2017-06-22T13:26:44.482Z,11.00
2017-06-22T13:29:12.784Z,11.50
2017-06-22T13:31:41.069Z,10.98
2017-06-22T13:34:09.359Z,10.72
2017-06-22T13:36:37.638Z,11.32
2017-06-22T13:39:05.944Z,11.32
2017-06-22T13:41:34.244Z,10.76
2017-06-22T13:44:02.525Z,10.20
2017-06-22T13:46:30.834Z,9.88
2017-06-22T13:48:59.105Z,11.26
2017-06-22T13:51:27.392Z,11.28
2017-06-22T13:53:55.654Z,11.44
2017-06-22T13:56:23.970Z,11.16
2017-06-22T13:58:52.239Z,12.16
2017-06-22T14:01:20.520Z,11.38
2017-06-22T14:03:48.814Z,11.16
2017-06-22T14:06:17.080Z,12.04
2017-06-22T14:08:45.388Z,11.90
2017-06-22T14:11:13.660Z,11.48
2017-06-22T14:13:41.922Z,11.74
2017-06-22T14:16:10.228Z,12.78
2017-06-22T14:18:38.492Z,11.02
2017-06-22T14:21:06.799Z,11.32
2017-06-22T14:23:35.072Z,11.60
2017-06-22T14:26:02.613Z,12.04
2017-06-22T14:28:30.883Z,11.04
2017-06-22T14:30:59.148Z,12.12
2017-06-22T14:33:27.453Z,12.56
2017-06-22T14:35:55.712Z,11.78
2017-06-22T14:38:23.256Z,11.70
2017-06-22T14:40:51.522Z,12.20
2017-06-22T14:43:19.784Z,12.62
2017-06-22T14:45:48.097Z,10.82
2017-06-22T14:48:16.359Z,13.30
2017-06-22T14:50:45.033Z,12.18
2017-06-22T14:53:13.306Z,12.84
2017-06-22T14:55:41.567Z,12.28
2017-06-22T14:58:09.863Z,12.68
2017-06-22T15:00:38.136Z,13.76
2017-06-22T15:03:06.428Z,13.06
2017-06-22T15:05:34.700Z,12.32
2017-06-22T15:08:03.009Z,12.92
2017-06-22T15:10:31.289Z,12.68
2017-06-22T15:12:59.557Z,12.72
2017-06-22T15:15:27.852Z,11.78
2017-06-22T15:17:56.168Z,14.00
2017-06-22T15:20:24.484Z,12.88
2017-06-22T15:22:52.758Z,12.14
2017-06-22T15:25:21.032Z,12.22
2017-06-22T15:27:49.332Z,12.34
2017-06-22T15:30:16.836Z,10.42
2017-06-22T15:32:45.130Z,10.90
2017-06-22T15:35:13.407Z,11.22
2017-06-22T15:37:41.721Z,11.36
2017-06-22T15:40:09.981Z,12.78
2017-06-22T15:42:39.192Z,11.28
2017-06-22T15:45:07.495Z,10.48
2017-06-22T15:47:35.766Z,10.38
2017-06-22T15:50:04.062Z,9.76
2017-06-22T15:52:32.327Z,9.84
2017-06-22T15:55:00.636Z,10.36
2017-06-22T15:57:28.902Z,8.90
2017-06-22T15:59:57.175Z,10.18
2017-06-22T16:02:25.475Z,8.70
2017-06-22T16:04:53.745Z,9.38
2017-06-22T16:07:22.049Z,7.52
2017-06-22T16:09:50.326Z,9.06
2017-06-22T16:12:18.589Z,7.52
2017-06-22T16:14:46.887Z,7.90
2017-06-22T16:17:15.184Z,8.42
2017-06-22T16:19:43.450Z,9.84
2017-06-22T16:22:11.754Z,8.64
2017-06-22T16:24:40.034Z,10.14
2017-06-22T16:27:08.339Z,8.42
2017-06-22T16:29:36.610Z,8.62
2017-06-22T16:32:04.919Z,8.64
2017-06-22T16:34:33.213Z,8.78
2017-06-22T16:37:01.484Z,7.56
2017-06-22T16:39:29.791Z,7.82
2017-06-22T16:41:58.062Z,8.04
2017-06-22T16:44:26.364Z,7.64
2017-06-22T16:46:54.627Z,7.70
2017-06-22T16:49:22.940Z,6.38
2017-06-22T16:51:51.204Z,7.76
2017-06-22T16:54:19.503Z,7.30
2017-06-22T16:56:47.764Z,6.52
2017-06-22T16:59:16.051Z,6.52
2017-06-22T17:01:44.357Z,6.50
2017-06-22T17:04:11.855Z,7.38
2017-06-22T17:06:40.151Z,6.56
2017-06-22T17:09:08.416Z,7.50
2017-06-22T17:11:36.675Z,7.48
2017-06-22T17:14:04.984Z,8.98
2017-06-22T17:16:33.247Z,7.74
2017-06-22T17:19:01.552Z,8.90
2017-06-22T17:21:29.857Z,8.32
2017-06-22T17:23:58.128Z,8.42
2017-06-22T17:26:26.439Z,8.76
2017-06-22T17:28:54.712Z,7.90
2017-06-22T17:31:23.054Z,9.38
2017-06-22T17:33:51.357Z,7.86
2017-06-22T17:36:19.639Z,8.74
2017-06-22T17:38:47.936Z,8.48
2017-06-22T17:41:16.210Z,9.96
2017-06-22T17:43:44.507Z,9.18
2017-06-22T17:46:12.772Z,9.22
2017-06-22T17:48:42.019Z,8.60
2017-06-22T17:51:10.291Z,9.16
2017-06-22T17:53:38.579Z,8.66
2017-06-22T17:56:06.836Z,9.36
2017-06-22T17:58:35.134Z,9.64
2017-06-22T18:01:03.448Z,10.24
2017-06-22T18:03:31.722Z,10.82
2017-06-22T18:05:59.982Z,12.00
2017-06-22T18:08:28.268Z,11.32
2017-06-22T18:10:56.533Z,13.44
2017-06-22T18:13:24.833Z,11.92
2017-06-22T18:15:53.145Z,14.22
2017-06-22T18:18:21.411Z,12.70
2017-06-22T18:20:49.680Z,13.80
2017-06-22T18:23:17.986Z,12.88
2017-06-22T18:25:46.275Z,13.78
2017-06-22T18:28:14.537Z,13.98
2017-06-22T18:30:42.852Z,14.10
2017-06-22T18:33:11.125Z,12.78
2017-06-22T18:35:39.423Z,15.84
2017-06-22T18:38:07.782Z,14.34
2017-06-22T18:40:36.051Z,14.30
2017-06-22T18:43:04.324Z,15.46
2017-06-22T18:45:32.622Z,15.20
2017-06-22T18:48:00.885Z,15.80
2017-06-22T18:50:29.185Z,16.86
2017-06-22T18:52:57.455Z,15.94
2017-06-22T18:55:25.774Z,15.68
2017-06-22T18:57:54.046Z,16.56
2017-06-22T19:00:22.328Z,15.58
2017-06-22T19:02:50.629Z,18.08
2017-06-22T19:05:18.902Z,16.14
2017-06-22T19:07:47.223Z,15.48
2017-06-22T19:10:15.506Z,16.12
2017-06-22T19:12:43.816Z,16.30
2017-06-22T19:15:12.089Z,16.36
2017-06-22T19:17:40.375Z,15.94
2017-06-22T19:20:08.697Z,15.42
2017-06-22T19:22:36.967Z,16.98
2017-06-22T19:25:05.227Z,17.66
2017-06-22T19:27:33.544Z,18.54
2017-06-22T19:30:01.875Z,18.66
2017-06-22T19:32:30.152Z,17.42
2017-06-22T19:34:58.420Z,15.60
2017-06-22T19:37:26.737Z,15.92
2017-06-22T19:39:55.040Z,17.46
2017-06-22T19:42:23.311Z,14.78
2017-06-22T19:44:51.668Z,15.82
2017-06-22T19:47:19.940Z,15.14
2017-06-22T19:49:48.243Z,16.60
2017-06-22T19:52:16.530Z,16.36
2017-06-22T19:54:44.840Z,15.34
2017-06-22T19:57:13.115Z,16.34
2017-06-22T19:59:41.462Z,16.54
2017-06-22T20:02:09.752Z,17.60
2017-06-22T20:04:38.066Z,14.78
2017-06-22T20:07:06.334Z,16.62
2017-06-22T20:09:34.611Z,15.98
2017-06-22T20:12:02.916Z,15.36
2017-06-22T20:14:31.236Z,16.62
2017-06-22T20:16:59.510Z,16.02
2017-06-22T20:19:27.780Z,15.22
2017-06-22T20:21:56.092Z,17.04
2017-06-22T20:24:24.361Z,14.72
2017-06-22T20:26:52.623Z,16.88
2017-06-22T20:29:20.929Z,16.82
2017-06-22T20:31:49.227Z,16.94
2017-06-22T20:34:17.512Z,15.94
2017-06-22T20:36:45.775Z,16.26
2017-06-22T20:39:14.095Z,14.90
2017-06-22T20:41:42.469Z,15.72
2017-06-22T20:44:10.771Z,15.60
2017-06-22T20:46:39.090Z,16.16
2017-06-22T20:49:07.356Z,14.52
2017-06-22T20:51:35.615Z,12.84
2017-06-22T20:54:03.933Z,12.06
2017-06-22T20:56:32.210Z,12.34
2017-06-22T20:59:00.483Z,12.28
2017-06-22T21:01:28.789Z,12.20
2017-06-22T21:03:57.057Z,11.98
2017-06-22T21:06:25.366Z,10.44
2017-06-22T21:08:53.704Z,10.90
2017-06-22T21:11:21.963Z,9.62
2017-06-22T21:13:50.281Z,11.36
2017-06-22T21:16:18.551Z,9.68
2017-06-22T21:18:46.824Z,10.40
2017-06-22T21:21:15.128Z,11.66
2017-06-22T21:23:43.399Z,11.52
2017-06-22T21:26:11.696Z,10.92
2017-06-22T21:28:39.963Z,10.86
2017-06-22T21:31:08.270Z,11.22
2017-06-22T21:33:36.543Z,10.56
2017-06-22T21:36:04.847Z,10.04
2017-06-22T21:38:33.143Z,11.60
2017-06-22T21:41:01.408Z,10.08
2017-06-22T21:43:29.709Z,11.28
2017-06-22T21:45:57.996Z,10.40
2017-06-22T21:48:26.263Z,11.44
2017-06-22T21:50:54.566Z,10.62
2017-06-22T21:53:22.888Z,11.84
2017-06-22T21:55:51.160Z,12.38
2017-06-22T21:58:19.450Z,13.56
2017-06-22T22:00:47.745Z,13.16
2017-06-22T22:03:16.022Z,16.54
2017-06-22T22:05:44.325Z,15.10
2017-06-22T22:08:12.583Z,15.52
2017-06-22T22:10:40.879Z,14.92
2017-06-22T22:13:09.143Z,15.00
2017-06-22T22:15:37.429Z,12.94
2017-06-22T22:18:05.690Z,15.84
2017-06-22T22:20:33.999Z,14.90
2017-06-22T22:23:02.317Z,15.84
2017-06-22T22:25:29.832Z,14.64
2017-06-22T22:27:58.128Z,16.56
2017-06-22T22:30:26.401Z,16.16
2017-06-22T22:32:54.705Z,15.90
2017-06-22T22:35:22.212Z,15.62
2017-06-22T22:37:50.525Z,18.14
2017-06-22T22:40:18.793Z,16.86
2017-06-22T22:42:47.132Z,15.82
2017-06-22T22:45:15.406Z,14.88
2017-06-22T22:47:43.678Z,15.80
2017-06-22T22:50:11.976Z,16.10
2017-06-22T22:52:40.251Z,18.98
2017-06-22T22:55:08.557Z,17.24
2017-06-22T22:57:36.830Z,20.82
2017-06-22T23:00:05.163Z,20.70
2017-06-22T23:02:33.447Z,23.22
2017-06-22T23:05:01.714Z,23.06
2017-06-22T23:07:30.008Z,22.68
2017-06-22T23:09:58.276Z,20.30
2017-06-22T23:12:26.573Z,21.64
2017-06-22T23:14:54.840Z,18.86
2017-06-22T23:17:23.153Z,17.88
2017-06-22T23:19:51.424Z,16.88
2017-06-22T23:22:19.736Z,16.72
2017-06-22T23:24:47.996Z,16.14
2017-06-22T23:27:16.271Z,16.72
2017-06-22T23:29:44.584Z,17.42
2017-06-22T23:32:12.847Z,16.48
2017-06-22T23:34:41.158Z,15.82
2017-06-22T23:37:09.423Z,14.90
2017-06-22T23:39:37.732Z,14.52
2017-06-22T23:42:05.995Z,13.58
2017-06-22T23:44:34.294Z,15.14
2017-06-22T23:47:02.562Z,15.36
2017-06-22T23:49:30.878Z,13.48
2017-06-22T23:51:59.141Z,14.64
2017-06-22T23:54:27.404Z,15.26
2017-06-22T23:56:55.703Z,14.14
2017-06-22T23:59:23.970Z,15.86
